Time;durP1;ratioP1;P1;durP2;ratioP2;P2;SDS_P1;SDS_P2;PMS_P1;PMS_P2;Temp;Humidity;BMP_temperature;BMP_pressure;BME280_temperature;BME280_humidity;BME280_pressure;Samples;Min_cycle;Max_cycle;Signal;HPM_P1;HPM_P2
2024/02/19 00:01:57;;;;;;;1.40;1.10;;;10.90;99.90;;;;;;4988606;28;20602;-72
2024/02/19 00:04:22;;;;;;;2.90;1.93;;;11.10;99.90;;;;;;4974606;28;20166;-72
2024/02/19 00:06:51;;;;;;;1.13;1.00;;;11.30;99.90;;;;;;4976064;28;20177;-72
2024/02/19 00:09:18;;;;;;;1.30;0.93;;;11.40;99.90;;;;;;4977356;28;20664;-72
2024/02/19 00:11:44;;;;;;;1.07;0.63;;;11.30;99.90;;;;;;4981203;28;20403;-72
2024/02/19 00:14:09;;;;;;;1.00;0.80;;;11.40;99.90;;;;;;4995153;28;20817;-71
2024/02/19 00:16:35;;;;;;;0.80;0.80;;;11.30;99.90;;;;;;4995262;28;20177;-73
2024/02/19 00:19:00;;;;;;;1.20;0.73;;;11.10;99.90;;;;;;4995080;28;20207;-73
2024/02/19 00:21:26;;;;;;;1.07;0.97;;;11.00;99.90;;;;;;4992394;28;20182;-71
2024/02/19 00:23:52;;;;;;;2.90;1.93;;;10.90;99.90;;;;;;4975710;28;20208;-71
2024/02/19 00:26:18;;;;;;;1.60;1.20;;;11.00;99.90;;;;;;4975716;28;20226;-72
2024/02/19 00:28:45;;;;;;;1.20;1.10;;;10.90;99.90;;;;;;4975491;28;20451;-71
2024/02/19 00:31:11;;;;;;;1.00;0.90;;;11.10;99.90;;;;;;4975721;28;20476;-71
2024/02/19 00:33:37;;;;;;;0.90;0.60;;;11.00;99.90;;;;;;4994560;28;20409;-72
2024/02/19 00:36:04;;;;;;;0.80;0.60;;;11.00;99.90;;;;;;4994543;28;20440;-72
2024/02/19 00:38:30;;;;;;;0.80;0.60;;;10.90;99.90;;;;;;4994429;28;20427;-73
2024/02/19 00:40:55;;;;;;;1.23;0.60;;;10.90;99.90;;;;;;4993876;28;20966;-72
2024/02/19 00:43:22;;;;;;;0.80;0.50;;;11.00;99.90;;;;;;4977333;28;20178;-72
2024/02/19 00:45:47;;;;;;;1.63;0.70;;;11.10;99.90;;;;;;4975141;28;20717;-72
2024/02/19 00:48:13;;;;;;;0.90;0.53;;;10.90;99.90;;;;;;4975188;28;20551;-71
2024/02/19 00:50:38;;;;;;;0.90;0.60;;;10.90;99.90;;;;;;4974903;28;20174;-71
2024/02/19 00:53:04;;;;;;;3.00;0.70;;;11.00;99.90;;;;;;4990237;28;20513;-71
2024/02/19 00:55:30;;;;;;;0.70;0.50;;;10.80;99.90;;;;;;4994438;28;20165;-71
2024/02/19 00:57:55;;;;;;;0.83;0.57;;;10.90;99.90;;;;;;4994332;28;20652;-70
2024/02/19 01:00:22;;;;;;;1.70;0.50;;;10.90;99.90;;;;;;4994396;28;20176;-72
2024/02/19 01:02:48;;;;;;;0.70;0.50;;;10.70;99.90;;;;;;4979778;28;20180;-71
2024/02/19 01:05:14;;;;;;;0.70;0.50;;;10.80;99.90;;;;;;4974596;28;20411;-72
2024/02/19 01:07:40;;;;;;;1.10;0.60;;;10.90;99.90;;;;;;4974356;28;20540;-71
2024/02/19 01:10:06;;;;;;;1.27;0.50;;;11.10;99.90;;;;;;4974481;28;20276;-71
2024/02/19 01:12:31;;;;;;;0.70;0.50;;;10.90;99.90;;;;;;4985266;28;20187;-71
2024/02/19 01:14:57;;;;;;;1.10;0.70;;;10.80;99.90;;;;;;4993952;28;20438;-71
2024/02/19 01:17:22;;;;;;;0.70;0.60;;;11.00;99.90;;;;;;4994141;28;20174;-72
2024/02/19 01:19:48;;;;;;;0.70;0.40;;;11.20;99.90;;;;;;4993740;28;20232;-72
2024/02/19 01:22:13;;;;;;;1.23;0.70;;;11.40;99.90;;;;;;4985971;28;20176;-71
2024/02/19 01:24:39;;;;;;;0.70;0.50;;;11.30;99.90;;;;;;4974619;28;20189;-71
2024/02/19 01:27:06;;;;;;;0.60;0.50;;;11.40;99.90;;;;;;4974371;28;20558;-71
2024/02/19 01:29:32;;;;;;;1.90;0.70;;;11.40;99.90;;;;;;4974456;28;20197;-71
2024/02/19 01:31:57;;;;;;;0.70;0.40;;;11.60;99.90;;;;;;4980132;28;20409;-71
2024/02/19 01:34:23;;;;;;;0.70;0.50;;;11.70;99.90;;;;;;4993887;28;20543;-71
2024/02/19 01:36:49;;;;;;;0.80;0.50;;;11.70;99.90;;;;;;4992247;28;20412;-72
2024/02/19 01:39:17;;;;;;;1.00;0.50;;;11.70;99.90;;;;;;4993784;28;20729;-72
2024/02/19 01:41:43;;;;;;;0.80;0.60;;;11.60;99.90;;;;;;4989680;28;20173;-72
2024/02/19 01:44:09;;;;;;;0.70;0.50;;;11.60;99.90;;;;;;4976668;28;20415;-72
2024/02/19 01:46:41;;;;;;;3.17;0.67;;;11.60;99.90;;;;;;4974117;28;20196;-72
2024/02/19 01:49:08;;;;;;;0.80;0.50;;;11.40;99.90;;;;;;4974041;28;20200;-71
2024/02/19 01:51:35;;;;;;;0.77;0.50;;;11.30;99.90;;;;;;4982054;28;20419;-73
2024/02/19 01:54:01;;;;;;;1.53;0.50;;;11.20;99.90;;;;;;4974306;28;20401;-72
2024/02/19 01:56:27;;;;;;;1.53;0.40;;;11.20;99.90;;;;;;4973933;28;20412;-71
2024/02/19 01:58:53;;;;;;;0.80;0.40;;;11.10;99.90;;;;;;4973927;28;20432;-71
2024/02/19 02:01:19;;;;;;;0.80;0.60;;;11.00;99.90;;;;;;4973959;28;20216;-71
2024/02/19 02:03:45;;;;;;;2.00;0.50;;;10.90;99.90;;;;;;4993542;28;20164;-72
2024/02/19 02:06:10;;;;;;;0.73;0.50;;;10.90;99.90;;;;;;4993298;28;20256;-71
2024/02/19 02:08:40;;;;;;;1.17;0.40;;;10.90;99.90;;;;;;4993142;28;20459;-71
2024/02/19 02:11:09;;;;;;;1.40;0.60;;;10.80;99.90;;;;;;4993146;28;20178;-71
2024/02/19 02:13:35;;;;;;;0.73;0.50;;;10.80;99.90;;;;;;4993136;28;20404;-71
2024/02/19 02:16:05;;;;;;;0.80;0.50;;;10.80;99.90;;;;;;4993628;28;20407;-71
2024/02/19 02:18:30;;;;;;;0.87;0.50;;;10.90;99.90;;;;;;4978616;28;20522;-71
2024/02/19 02:20:56;;;;;;;0.70;0.50;;;10.80;99.90;;;;;;4978152;28;20424;-72
2024/02/19 02:23:28;;;;;;;0.77;0.60;;;11.00;99.90;;;;;;4994296;28;20279;-72
2024/02/19 02:25:54;;;;;;;1.10;0.70;;;11.10;99.90;;;;;;4996653;28;20445;-71
2024/02/19 02:28:21;;;;;;;1.77;0.70;;;11.00;99.90;;;;;;4996935;28;20488;-72
2024/02/19 02:30:46;;;;;;;1.43;0.77;;;10.90;99.90;;;;;;4997202;28;20759;-72
2024/02/19 02:33:12;;;;;;;1.90;0.70;;;10.90;99.90;;;;;;4982444;28;20445;-72
2024/02/19 02:35:38;;;;;;;1.50;0.70;;;11.10;99.90;;;;;;4976537;28;20223;-72
2024/02/19 02:38:03;;;;;;;1.00;0.63;;;11.10;99.90;;;;;;4977427;28;20978;-72
2024/02/19 02:40:29;;;;;;;0.90;0.57;;;11.10;99.90;;;;;;4977432;28;20616;-72
2024/02/19 02:42:54;;;;;;;1.03;0.50;;;11.10;99.90;;;;;;4989750;28;20678;-72
2024/02/19 02:45:20;;;;;;;0.90;0.50;;;11.20;99.90;;;;;;4996863;28;20220;-73
2024/02/19 02:47:46;;;;;;;0.87;0.50;;;11.20;99.90;;;;;;4997023;28;20205;-72
2024/02/19 02:50:11;;;;;;;1.10;0.50;;;11.30;99.90;;;;;;4996829;28;20632;-72
2024/02/19 02:52:37;;;;;;;1.47;0.67;;;11.30;99.90;;;;;;4987009;28;20520;-72
2024/02/19 02:55:03;;;;;;;1.97;0.60;;;11.40;99.90;;;;;;4977485;28;20569;-72
2024/02/19 02:57:28;;;;;;;0.90;0.60;;;11.30;99.90;;;;;;4977398;28;20633;-72
2024/02/19 02:59:54;;;;;;;0.70;0.50;;;11.40;99.90;;;;;;4976966;28;20189;-72
2024/02/19 03:02:19;;;;;;;1.27;0.60;;;11.50;99.90;;;;;;4984299;28;20175;-73
2024/02/19 03:04:45;;;;;;;0.80;0.70;;;11.40;99.90;;;;;;4996563;28;20170;-72
2024/02/19 03:07:10;;;;;;;0.90;0.77;;;11.40;99.90;;;;;;4996388;28;20555;-71
2024/02/19 03:09:36;;;;;;;1.03;0.70;;;11.40;99.90;;;;;;4996324;28;20683;-71
2024/02/19 03:12:01;;;;;;;2.73;0.80;;;11.40;99.90;;;;;;4991485;28;20528;-73
2024/02/19 03:14:27;;;;;;;1.30;0.70;;;11.30;99.90;;;;;;4976996;28;20172;-71
2024/02/19 03:16:52;;;;;;;1.37;0.87;;;11.20;99.90;;;;;;4976689;28;20168;-72
2024/02/19 03:19:19;;;;;;;1.00;0.77;;;11.20;99.90;;;;;;4976606;28;20249;-72
2024/02/19 03:21:45;;;;;;;1.40;1.20;;;11.30;99.90;;;;;;4979109;28;20200;-72
2024/02/19 03:24:10;;;;;;;1.97;1.03;;;11.20;99.90;;;;;;4996023;28;20931;-72
2024/02/19 03:26:36;;;;;;;3.20;1.20;;;11.10;99.90;;;;;;4995910;28;20650;-72
2024/02/19 03:29:08;;;;;;;1.80;1.30;;;11.00;99.90;;;;;;4995505;28;20211;-71
2024/02/19 03:31:33;;;;;;;1.73;1.33;;;11.00;99.90;;;;;;4993934;28;20168;-72
2024/02/19 03:33:59;;;;;;;1.60;1.43;;;11.00;99.90;;;;;;4976528;28;20463;-71
2024/02/19 03:36:26;;;;;;;1.70;1.60;;;11.00;99.90;;;;;;4976447;28;20639;-71
2024/02/19 03:38:52;;;;;;;1.27;1.17;;;10.80;99.90;;;;;;4976280;28;20188;-70
2024/02/19 03:41:17;;;;;;;2.10;1.33;;;10.80;99.90;;;;;;4976330;28;20401;-71
2024/02/19 03:43:44;;;;;;;2.70;1.80;;;10.90;99.90;;;;;;4994222;28;20180;-71
2024/02/19 03:46:10;;;;;;;2.60;2.07;;;10.90;99.90;;;;;;4995538;28;20172;-70
2024/02/19 03:48:37;;;;;;;4.07;2.50;;;10.90;99.90;;;;;;4992470;28;20458;-71
2024/02/19 03:51:02;;;;;;;2.27;2.07;;;10.90;99.90;;;;;;4995814;28;20415;-71
2024/02/19 03:53:29;;;;;;;5.63;1.93;;;10.90;99.90;;;;;;4979431;28;20760;-72
2024/02/19 03:55:56;;;;;;;2.30;1.80;;;10.90;99.90;;;;;;4976601;28;20228;-71
2024/02/19 03:58:22;;;;;;;3.70;1.70;;;10.80;99.90;;;;;;4987548;28;20949;-71
2024/02/19 04:00:48;;;;;;;1.70;1.53;;;10.80;99.90;;;;;;4995305;28;20494;-71
2024/02/19 04:03:13;;;;;;;2.40;1.90;;;10.80;99.90;;;;;;4993866;28;20494;-72
2024/02/19 04:05:39;;;;;;;1.83;1.20;;;10.80;99.90;;;;;;4995465;28;20172;-72
2024/02/19 04:08:05;;;;;;;2.30;1.80;;;10.80;99.90;;;;;;4993693;28;20635;-72
2024/02/19 04:10:30;;;;;;;2.20;1.60;;;10.90;99.90;;;;;;4995261;28;20193;-72
2024/02/19 04:12:56;;;;;;;2.47;1.30;;;10.80;99.90;;;;;;4995071;28;20176;-72
2024/02/19 04:15:21;;;;;;;3.47;1.63;;;10.90;99.90;;;;;;4995084;28;20597;-72
2024/02/19 04:17:47;;;;;;;1.40;1.20;;;10.90;99.90;;;;;;4994266;28;20255;-72
2024/02/19 04:20:13;;;;;;;1.67;1.57;;;10.80;99.90;;;;;;4976307;28;20592;-72
2024/02/19 04:22:38;;;;;;;1.90;1.23;;;10.80;99.90;;;;;;4984284;28;20503;-71
2024/02/19 04:25:04;;;;;;;1.87;1.50;;;10.70;99.90;;;;;;4995121;28;20173;-70
2024/02/19 04:27:30;;;;;;;1.80;1.40;;;10.60;99.90;;;;;;4994952;28;20241;-71
2024/02/19 04:29:55;;;;;;;3.57;1.73;;;10.80;99.90;;;;;;4994782;28;20274;-71
2024/02/19 04:32:21;;;;;;;1.60;1.50;;;10.60;99.90;;;;;;4988771;28;20174;-72
2024/02/19 04:34:46;;;;;;;4.97;1.90;;;10.70;99.90;;;;;;4975575;28;20174;-72
2024/02/19 04:37:12;;;;;;;2.10;1.37;;;10.70;99.90;;;;;;4973894;28;20176;-70
2024/02/19 04:39:37;;;;;;;1.90;1.47;;;10.60;99.90;;;;;;4975340;28;20203;-72
2024/02/19 04:42:03;;;;;;;2.53;1.60;;;10.60;99.90;;;;;;4978115;28;20178;-71
2024/02/19 04:44:29;;;;;;;3.77;1.83;;;10.60;99.90;;;;;;4994764;28;20215;-71
2024/02/19 04:46:55;;;;;;;1.77;1.50;;;10.70;99.90;;;;;;4994879;28;20415;-71
2024/02/19 04:49:21;;;;;;;1.13;1.03;;;10.60;99.90;;;;;;4994442;28;20286;-71
2024/02/19 04:51:47;;;;;;;2.57;2.03;;;10.50;99.90;;;;;;4993370;28;20504;-71
2024/02/19 04:54:12;;;;;;;2.00;1.80;;;10.50;99.90;;;;;;4975372;28;20166;-71
2024/02/19 04:56:38;;;;;;;3.60;2.23;;;10.50;99.90;;;;;;4975021;28;20177;-72
2024/02/19 04:59:03;;;;;;;2.27;1.77;;;10.40;99.90;;;;;;4974927;28;20200;-71
2024/02/19 05:01:33;;;;;;;2.30;2.10;;;10.40;99.90;;;;;;4975138;28;20187;-71
2024/02/19 05:03:58;;;;;;;3.87;2.47;;;10.40;99.90;;;;;;4993537;28;20250;-71
2024/02/19 05:06:24;;;;;;;5.60;2.90;;;10.30;99.90;;;;;;4994333;28;20509;-71
2024/02/19 05:08:50;;;;;;;3.67;2.60;;;10.30;99.90;;;;;;4994126;28;20466;-70
2024/02/19 05:11:16;;;;;;;5.90;2.60;;;10.40;99.90;;;;;;4994143;28;20172;-71
2024/02/19 05:13:42;;;;;;;4.00;3.13;;;10.40;99.90;;;;;;4976199;28;20826;-71
2024/02/19 05:16:08;;;;;;;4.83;3.13;;;10.40;99.90;;;;;;4974422;28;20161;-71
2024/02/19 05:18:35;;;;;;;4.10;3.00;;;10.30;99.90;;;;;;5001096;23;20649;-70
2024/02/19 05:21:02;;;;;;;3.90;3.20;;;10.30;99.90;;;;;;4988264;28;20426;-69
2024/02/19 05:23:29;;;;;;;3.33;3.03;;;10.30;99.90;;;;;;4993019;28;20407;-70
2024/02/19 05:25:54;;;;;;;5.37;3.40;;;10.30;99.90;;;;;;4994310;28;20950;-70
2024/02/19 05:28:20;;;;;;;9.43;3.60;;;10.30;99.90;;;;;;4994282;28;20520;-69
2024/02/19 05:30:46;;;;;;;5.40;3.83;;;10.30;99.90;;;;;;4995168;28;20634;-70
2024/02/19 05:33:12;;;;;;;6.60;3.80;;;10.40;99.90;;;;;;4987403;28;20234;-70
2024/02/19 05:35:38;;;;;;;3.93;3.53;;;10.40;99.90;;;;;;4983238;28;20209;-70
2024/02/19 05:38:03;;;;;;;5.77;3.80;;;10.40;99.90;;;;;;4985209;28;20502;-72
2024/02/19 05:40:29;;;;;;;7.93;3.30;;;10.40;99.90;;;;;;4985650;28;20204;-71
2024/02/19 05:42:55;;;;;;;4.37;3.13;;;10.40;99.90;;;;;;4985245;28;20177;-71
2024/02/19 05:45:20;;;;;;;5.37;3.80;;;10.40;99.90;;;;;;4986134;28;20212;-71
2024/02/19 05:47:49;;;;;;;4.00;3.37;;;10.50;99.90;;;;;;4993975;28;20200;-71
2024/02/19 05:50:15;;;;;;;6.27;5.00;;;10.60;99.90;;;;;;4994375;28;20964;-70
2024/02/19 05:52:40;;;;;;;10.77;9.57;;;10.60;99.90;;;;;;4983525;28;20398;-71
2024/02/19 05:55:09;;;;;;;4.67;3.70;;;10.50;99.90;;;;;;4974870;28;20251;-71
2024/02/19 05:57:35;;;;;;;5.27;4.33;;;10.50;99.90;;;;;;4974876;28;20178;-72
2024/02/19 06:00:00;;;;;;;8.70;4.53;;;10.40;99.90;;;;;;4973300;28;20434;-73
2024/02/19 06:02:26;;;;;;;8.10;5.90;;;10.50;99.90;;;;;;4980151;28;20414;-70
2024/02/19 06:04:51;;;;;;;8.70;5.60;;;10.40;99.90;;;;;;4993414;28;20181;-71
2024/02/19 06:07:17;;;;;;;4.70;4.20;;;10.50;99.90;;;;;;4994077;28;20684;-70
2024/02/19 06:09:43;;;;;;;4.67;4.27;;;10.50;99.90;;;;;;4992749;28;20283;-70
2024/02/19 06:12:09;;;;;;;3.83;3.20;;;10.50;99.90;;;;;;4990653;28;20670;-71
2024/02/19 06:14:36;;;;;;;4.70;4.10;;;10.50;99.90;;;;;;4974745;28;20176;-71
2024/02/19 06:17:01;;;;;;;6.70;5.37;;;10.50;99.90;;;;;;4974784;28;20400;-69
2024/02/19 06:19:27;;;;;;;4.20;3.80;;;10.60;99.90;;;;;;4975149;28;20595;-69
2024/02/19 06:21:53;;;;;;;15.10;11.13;;;10.60;99.90;;;;;;4975346;28;20180;-69
2024/02/19 06:24:18;;;;;;;6.30;5.37;;;10.50;99.90;;;;;;4994239;28;20226;-69
2024/02/19 06:26:44;;;;;;;3.93;3.53;;;10.60;99.90;;;;;;4993771;28;20680;-69
2024/02/19 06:29:10;;;;;;;6.60;5.30;;;10.50;99.90;;;;;;4994074;28;20203;-69
2024/02/19 06:31:37;;;;;;;5.60;5.03;;;10.70;99.90;;;;;;4993592;28;20208;-69
2024/02/19 06:34:03;;;;;;;9.73;6.80;;;10.70;99.90;;;;;;4975441;28;20410;-70
2024/02/19 06:36:28;;;;;;;4.17;3.70;;;10.70;99.90;;;;;;4973947;28;20892;-69
2024/02/19 06:38:54;;;;;;;14.77;11.23;;;10.60;99.90;;;;;;4974156;28;20240;-68
2024/02/19 06:41:20;;;;;;;6.67;5.40;;;10.50;99.90;;;;;;4974301;28;20644;-70
2024/02/19 06:43:45;;;;;;;6.00;5.33;;;10.50;99.90;;;;;;4989702;28;20207;-70
2024/02/19 06:46:14;;;;;;;5.43;4.10;;;10.50;99.90;;;;;;4993826;28;20203;-70
2024/02/19 06:48:41;;;;;;;8.10;5.87;;;10.50;99.90;;;;;;4992126;28;20262;-69
2024/02/19 06:51:06;;;;;;;8.13;4.00;;;10.50;99.90;;;;;;4994194;28;20497;-70
2024/02/19 06:53:32;;;;;;;4.60;3.90;;;10.60;99.90;;;;;;4993494;28;20495;-70
2024/02/19 06:55:58;;;;;;;5.47;4.97;;;10.40;99.90;;;;;;4993511;28;20172;-69
2024/02/19 06:58:24;;;;;;;5.50;3.50;;;10.50;99.90;;;;;;4993589;28;20753;-71
2024/02/19 07:00:49;;;;;;;4.10;3.70;;;10.50;99.90;;;;;;4993767;28;20171;-71
2024/02/19 07:03:15;;;;;;;5.27;3.50;;;10.50;99.90;;;;;;4982509;28;20173;-69
2024/02/19 07:05:42;;;;;;;5.23;3.93;;;10.50;99.90;;;;;;4977809;28;20177;-69
2024/02/19 07:08:07;;;;;;;4.60;3.23;;;10.50;99.90;;;;;;4978364;28;20447;-71
2024/02/19 07:10:33;;;;;;;3.40;3.10;;;10.60;99.90;;;;;;4976446;28;20435;-70
2024/02/19 07:12:59;;;;;;;6.40;3.13;;;10.60;99.90;;;;;;4986477;28;20176;-70
2024/02/19 07:15:25;;;;;;;3.20;2.90;;;10.60;99.90;;;;;;4996768;28;20170;-70
2024/02/19 07:17:50;;;;;;;5.27;3.60;;;10.60;99.90;;;;;;4996859;28;20172;-70
2024/02/19 07:20:16;;;;;;;6.43;4.00;;;10.60;99.90;;;;;;4996522;28;20212;-69
2024/02/19 07:22:42;;;;;;;4.40;2.97;;;10.60;99.90;;;;;;4990404;28;20176;-69
2024/02/19 07:25:07;;;;;;;5.40;2.60;;;10.60;99.90;;;;;;4977068;28;20586;-70
2024/02/19 07:27:33;;;;;;;4.70;2.17;;;10.50;99.90;;;;;;4977806;28;20198;-70
2024/02/19 07:29:59;;;;;;;4.03;2.83;;;10.50;99.90;;;;;;4977216;28;20244;-71
2024/02/19 07:32:24;;;;;;;3.80;2.30;;;10.50;99.90;;;;;;4981450;28;20250;-70
2024/02/19 07:34:51;;;;;;;3.30;2.47;;;10.50;99.90;;;;;;4996510;28;20168;-71
2024/02/19 07:37:16;;;;;;;6.23;2.63;;;10.50;99.90;;;;;;4995327;28;20168;-70
2024/02/19 07:39:42;;;;;;;3.87;2.60;;;10.60;99.90;;;;;;4995137;28;20433;-72
2024/02/19 07:42:08;;;;;;;4.93;2.37;;;10.60;99.90;;;;;;4993443;28;20176;-71
2024/02/19 07:44:34;;;;;;;3.10;2.43;;;10.70;99.90;;;;;;4976754;28;20409;-71
2024/02/19 07:47:03;;;;;;;4.13;2.20;;;10.80;99.90;;;;;;4975363;28;20511;-70
2024/02/19 07:49:28;;;;;;;3.83;1.97;;;10.60;99.90;;;;;;4977709;28;20296;-71
2024/02/19 07:51:54;;;;;;;3.37;1.93;;;10.90;99.90;;;;;;4978787;28;20842;-70
2024/02/19 07:54:19;;;;;;;2.57;2.03;;;10.80;99.90;;;;;;4998568;28;20801;-70
2024/02/19 07:56:45;;;;;;;4.57;2.40;;;10.60;99.90;;;;;;4997496;28;20698;-70
2024/02/19 07:59:11;;;;;;;3.67;2.00;;;10.80;99.90;;;;;;4997690;28;20222;-70
2024/02/19 08:01:37;;;;;;;2.57;1.80;;;10.70;99.90;;;;;;4998331;28;20172;-71
2024/02/19 08:04:03;;;;;;;3.50;2.03;;;10.80;99.90;;;;;;4993477;28;20554;-71
2024/02/19 08:06:29;;;;;;;3.27;2.10;;;10.80;99.90;;;;;;4996059;28;20427;-72
2024/02/19 08:08:55;;;;;;;2.80;1.80;;;10.90;99.90;;;;;;4995728;28;20207;-67
2024/02/19 08:11:21;;;;;;;2.50;1.83;;;10.80;99.90;;;;;;4995769;28;20434;-69
2024/02/19 08:13:47;;;;;;;3.37;2.03;;;10.90;99.90;;;;;;4995910;28;20223;-69
2024/02/19 08:16:13;;;;;;;3.53;2.13;;;10.90;99.90;;;;;;4995870;28;20410;-70
2024/02/19 08:18:39;;;;;;;4.03;1.57;;;10.80;99.90;;;;;;4996501;28;20448;-69
2024/02/19 08:21:04;;;;;;;1.87;1.30;;;10.60;99.90;;;;;;4995650;28;20446;-69
2024/02/19 08:23:30;;;;;;;3.70;1.50;;;10.60;99.90;;;;;;4995361;28;20184;-69
2024/02/19 08:25:56;;;;;;;3.90;1.50;;;10.70;99.90;;;;;;4995523;28;20258;-69
2024/02/19 08:28:21;;;;;;;1.93;1.23;;;10.80;99.90;;;;;;4987558;28;20215;-70
2024/02/19 08:30:47;;;;;;;1.63;1.33;;;10.80;99.90;;;;;;4975937;28;20169;-70
2024/02/19 08:33:12;;;;;;;3.37;1.50;;;11.00;99.90;;;;;;4984389;28;20561;-69
2024/02/19 08:35:38;;;;;;;2.07;1.53;;;10.90;99.90;;;;;;4995576;28;20168;-69
2024/02/19 08:38:05;;;;;;;1.77;1.63;;;10.80;99.90;;;;;;4995285;28;20172;-69
2024/02/19 08:40:30;;;;;;;2.40;1.57;;;10.80;99.90;;;;;;4995446;28;20192;-70
2024/02/19 08:42:56;;;;;;;3.20;1.60;;;10.80;99.90;;;;;;4986516;28;20410;-70
2024/02/19 08:45:22;;;;;;;3.17;1.30;;;10.90;99.90;;;;;;4975786;28;20225;-70
2024/02/19 08:47:47;;;;;;;3.20;1.23;;;10.90;99.90;;;;;;4975605;28;20185;-70
2024/02/19 08:50:13;;;;;;;3.07;1.20;;;11.00;99.90;;;;;;4974233;28;20198;-70
2024/02/19 08:52:39;;;;;;;3.63;1.57;;;10.90;99.90;;;;;;4980316;28;20183;-70
2024/02/19 08:55:05;;;;;;;1.87;1.50;;;11.00;99.90;;;;;;4995680;28;20769;-70
2024/02/19 08:57:30;;;;;;;6.10;1.53;;;11.00;99.90;;;;;;4994976;28;20233;-69
2024/02/19 08:59:56;;;;;;;2.60;1.33;;;10.90;99.90;;;;;;4995393;28;20663;-70
2024/02/19 09:02:21;;;;;;;2.30;1.40;;;10.80;99.90;;;;;;4993076;28;20574;-70
2024/02/19 09:04:47;;;;;;;2.03;1.40;;;10.80;99.90;;;;;;4974460;28;20181;-70
2024/02/19 09:07:13;;;;;;;4.83;1.30;;;10.80;99.90;;;;;;4974401;28;20194;-69
2024/02/19 09:09:40;;;;;;;2.70;1.60;;;10.90;99.90;;;;;;4975765;28;20205;-70
2024/02/19 09:12:07;;;;;;;4.23;1.67;;;11.00;99.90;;;;;;4975781;28;20880;-70
2024/02/19 09:14:32;;;;;;;3.73;1.33;;;11.00;99.90;;;;;;4994067;28;20416;-70
2024/02/19 09:16:58;;;;;;;2.53;1.30;;;11.00;99.90;;;;;;4995107;28;20415;-71
2024/02/19 09:19:24;;;;;;;6.60;1.17;;;10.90;99.90;;;;;;4995043;28;20557;-70
2024/02/19 09:21:50;;;;;;;3.73;1.23;;;10.90;99.90;;;;;;4995248;28;20223;-71
2024/02/19 09:24:15;;;;;;;2.83;1.40;;;11.00;99.90;;;;;;4977818;28;20412;-70
2024/02/19 09:26:44;;;;;;;3.83;1.40;;;11.10;99.90;;;;;;4975244;28;20781;-70
2024/02/19 09:29:10;;;;;;;2.13;1.30;;;11.20;99.90;;;;;;4975581;28;20692;-70
2024/02/19 09:31:36;;;;;;;1.47;1.10;;;11.10;99.90;;;;;;4975891;28;20440;-71
2024/02/19 09:34:02;;;;;;;3.30;1.30;;;11.20;99.90;;;;;;4990935;28;20169;-71
2024/02/19 09:36:28;;;;;;;3.83;2.57;;;11.40;99.90;;;;;;4995050;28;20424;-70
2024/02/19 09:38:54;;;;;;;7.50;1.70;;;11.50;99.90;;;;;;4993356;28;20438;-71
2024/02/19 09:41:20;;;;;;;3.70;1.40;;;11.50;99.90;;;;;;4992898;28;20662;-71
2024/02/19 09:43:46;;;;;;;5.70;1.50;;;11.50;99.90;;;;;;4982148;28;20180;-71
2024/02/19 09:46:18;;;;;;;4.90;2.03;;;11.40;99.90;;;;;;4975739;28;20974;-71
2024/02/19 09:48:48;;;;;;;2.50;1.40;;;11.60;99.90;;;;;;4982473;28;20208;-71
2024/02/19 09:51:18;;;;;;;3.43;1.13;;;11.70;99.90;;;;;;4982651;28;20827;-71
2024/02/19 09:53:45;;;;;;;6.83;1.27;;;11.80;99.90;;;;;;4988090;28;20418;-71
2024/02/19 09:56:17;;;;;;;5.43;1.53;;;11.50;99.90;;;;;;4994389;28;20408;-71
2024/02/19 09:58:43;;;;;;;3.83;1.43;;;11.60;99.90;;;;;;4994905;28;20530;-70
2024/02/19 10:01:09;;;;;;;4.33;1.50;;;11.50;99.90;;;;;;4994824;28;20421;-71
2024/02/19 10:03:34;;;;;;;4.10;1.77;;;11.40;99.90;;;;;;4994551;28;20415;-70
2024/02/19 10:06:02;;;;;;;2.37;1.30;;;11.40;99.90;;;;;;4994423;28;20204;-71
2024/02/19 10:08:28;;;;;;;4.00;1.70;;;11.30;99.90;;;;;;4994013;28;20200;-71
2024/02/19 10:10:56;;;;;;;1.67;1.17;;;11.40;99.90;;;;;;4992976;28;20419;-71
2024/02/19 10:13:21;;;;;;;6.73;1.60;;;11.40;99.90;;;;;;4993914;28;20404;-71
2024/02/19 10:15:47;;;;;;;3.60;1.83;;;11.20;99.90;;;;;;4994014;28;20829;-70
2024/02/19 10:18:14;;;;;;;4.20;1.53;;;11.30;99.90;;;;;;4993586;28;20169;-71
2024/02/19 10:20:50;;;;;;;5.20;1.50;;;11.60;99.90;;;;;;4992615;28;20452;-71
2024/02/19 10:23:17;;;;;;;3.03;1.13;;;11.60;99.90;;;;;;4985399;28;20535;-71
2024/02/19 10:25:43;;;;;;;3.00;1.27;;;11.70;99.90;;;;;;4974308;28;20899;-71
2024/02/19 10:28:09;;;;;;;4.00;1.50;;;11.60;99.90;;;;;;4972842;28;20458;-70
2024/02/19 10:30:35;;;;;;;3.73;1.53;;;11.40;99.90;;;;;;4974163;28;20413;-70
2024/02/19 10:33:01;;;;;;;3.33;1.47;;;11.40;99.90;;;;;;4980747;28;20259;-71
2024/02/19 10:35:28;;;;;;;3.60;1.60;;;11.30;99.90;;;;;;4988260;28;20413;-71
2024/02/19 10:37:58;;;;;;;3.30;1.43;;;11.30;99.90;;;;;;4974816;28;20746;-70
2024/02/19 10:40:24;;;;;;;3.70;1.70;;;11.30;99.90;;;;;;4975858;28;20477;-71
2024/02/19 10:42:50;;;;;;;4.33;1.73;;;11.10;99.90;;;;;;4982645;28;20529;-70
2024/02/19 10:45:21;;;;;;;3.63;1.70;;;11.00;99.90;;;;;;4997828;28;20412;-71
2024/02/19 10:47:48;;;;;;;3.37;1.53;;;11.10;99.90;;;;;;4997474;28;20438;-71
2024/02/19 10:50:20;;;;;;;3.50;1.30;;;11.20;99.90;;;;;;4997176;28;20961;-70
2024/02/19 10:52:49;;;;;;;3.13;1.57;;;11.20;99.90;;;;;;4993113;28;20510;-70
2024/02/19 10:55:16;;;;;;;2.30;1.10;;;11.10;99.90;;;;;;4977396;28;20481;-70
2024/02/19 10:57:48;;;;;;;3.73;1.63;;;11.30;99.90;;;;;;4976351;28;20550;-70
2024/02/19 11:00:15;;;;;;;3.43;1.70;;;11.60;99.90;;;;;;4977782;28;21006;-70
2024/02/19 11:02:40;;;;;;;3.50;1.70;;;11.60;99.90;;;;;;4981422;28;20415;-71
2024/02/19 11:05:10;;;;;;;2.63;1.20;;;11.50;99.90;;;;;;4998008;28;20423;-70
2024/02/19 11:07:36;;;;;;;2.70;1.73;;;11.60;99.90;;;;;;4996660;28;20215;-70
2024/02/19 11:10:04;;;;;;;2.80;1.17;;;11.70;99.90;;;;;;4996563;28;20471;-70
2024/02/19 11:12:30;;;;;;;3.70;1.50;;;11.80;99.90;;;;;;4995395;28;20406;-70
2024/02/19 11:14:56;;;;;;;3.90;1.73;;;11.70;99.90;;;;;;4975924;28;20430;-70
2024/02/19 11:17:25;;;;;;;2.30;1.20;;;11.80;99.90;;;;;;4977397;28;20414;-70
2024/02/19 11:19:54;;;;;;;7.93;1.43;;;11.60;99.90;;;;;;4977806;28;20589;-70
2024/02/19 11:22:33;;;;;;;4.20;1.60;;;11.60;99.90;;;;;;4977455;28;20415;-70
2024/02/19 11:24:58;;;;;;;4.80;2.00;;;11.70;99.90;;;;;;4977474;28;20418;-70
2024/02/19 11:27:24;;;;;;;2.63;1.50;;;11.90;99.90;;;;;;4977588;28;20434;-71
2024/02/19 11:29:57;;;;;;;4.30;1.73;;;12.00;99.90;;;;;;4976955;28;20201;-70
2024/02/19 11:32:23;;;;;;;4.93;1.70;;;11.80;99.90;;;;;;4981612;28;20171;-70
2024/02/19 11:34:49;;;;;;;2.47;1.07;;;11.50;99.90;;;;;;4977235;28;20435;-70
2024/02/19 11:37:16;;;;;;;2.60;1.20;;;11.50;99.90;;;;;;4976881;28;20173;-70
2024/02/19 11:39:44;;;;;;;3.57;1.67;;;11.70;99.90;;;;;;4976785;28;20427;-70
2024/02/19 11:42:15;;;;;;;3.87;1.50;;;12.00;99.90;;;;;;4977123;28;20418;-70
2024/02/19 11:44:43;;;;;;;6.27;1.97;;;12.10;99.90;;;;;;4994325;28;20792;-70
2024/02/19 11:47:13;;;;;;;2.17;1.50;;;12.00;99.90;;;;;;4996388;28;20408;-70
2024/02/19 11:49:39;;;;;;;2.90;1.33;;;12.10;99.90;;;;;;4995697;28;20451;-71
2024/02/19 11:52:07;;;;;;;1.90;1.53;;;12.20;99.90;;;;;;4995713;28;20424;-69
2024/02/19 11:54:33;;;;;;;3.30;1.20;;;12.50;99.90;;;;;;4996316;28;20414;-70
2024/02/19 11:57:03;;;;;;;2.90;1.20;;;12.30;99.90;;;;;;4994777;28;20409;-70
2024/02/19 11:59:30;;;;;;;1.67;1.30;;;12.20;99.90;;;;;;4996172;28;20423;-70
2024/02/19 12:01:56;;;;;;;4.37;1.50;;;12.10;99.90;;;;;;4996106;28;20450;-69
2024/02/19 12:04:22;;;;;;;3.20;1.33;;;12.20;99.90;;;;;;4995747;28;20799;-70
2024/02/19 12:06:47;;;;;;;2.47;1.47;;;12.30;99.90;;;;;;4996290;28;20403;-70
2024/02/19 12:09:13;;;;;;;2.70;1.43;;;12.40;99.90;;;;;;4996177;28;20215;-70
2024/02/19 12:11:46;;;;;;;3.30;1.20;;;12.50;99.90;;;;;;4996401;28;20226;-70
2024/02/19 12:14:17;;;;;;;4.50;1.90;;;12.60;99.90;;;;;;4996422;28;20637;-70
2024/02/19 12:16:45;;;;;;;3.57;1.30;;;12.80;99.90;;;;;;4996294;28;20927;-70
2024/02/19 12:19:11;;;;;;;3.70;1.17;;;12.90;99.90;;;;;;4996312;28;20449;-70
2024/02/19 12:21:37;;;;;;;1.97;1.30;;;12.80;99.90;;;;;;4996516;28;20415;-70
2024/02/19 12:24:04;;;;;;;3.23;1.13;;;12.70;99.90;;;;;;4997029;28;20635;-70
2024/02/19 12:26:30;;;;;;;5.07;1.17;;;12.40;99.90;;;;;;4996139;28;20411;-70
2024/02/19 12:28:56;;;;;;;2.30;1.20;;;12.50;99.90;;;;;;4996614;28;20456;-70
2024/02/19 12:31:21;;;;;;;2.83;1.27;;;12.40;99.90;;;;;;4991856;28;20423;-69
2024/02/19 12:33:48;;;;;;;9.77;1.60;;;12.30;99.90;;;;;;4977038;28;20296;-69
2024/02/19 12:36:14;;;;;;;1.63;1.30;;;12.20;99.90;;;;;;4977037;28;20576;-69
2024/02/19 12:38:44;;;;;;;3.23;1.63;;;12.20;99.90;;;;;;4976850;28;20511;-69
2024/02/19 12:41:14;;;;;;;3.00;1.10;;;12.10;99.90;;;;;;4979579;28;20416;-69